Time;durP1;ratioP1;P1;durP2;ratioP2;P2;SDS_P1;SDS_P2;PMS_P1;PMS_P2;Temp;Humidity;BMP_temperature;BMP_pressure;BME280_temperature;BME280_humidity;BME280_pressure;Samples;Min_cycle;Max_cycle;Signal;HPM_P1;HPM_P2
2022/11/15 00:06:11;;;;;;;;;;;;;;;;;;;;;
2022/11/15 00:10:38;;;;;;;14.88;9.20;;;;;;;7.10;96.16;100249.00;4992326;28;20049;-77
2022/11/15 00:22:55;;;;;;;9.82;6.13;;;;;;;7.13;96.25;100249.72;4996008;28;20112;-77
2022/11/15 00:27:02;;;;;;;10.60;6.90;;;;;;;7.07;96.57;100251.72;4995965;28;20130;-77
2022/11/15 00:36:17;;;;;;;11.27;7.00;;;;;;;7.16;96.66;100248.75;4995865;28;20103;-77
2022/11/15 00:39:48;;;;;;;7.97;5.38;;;;;;;7.11;96.48;100238.53;4994775;28;20133;-77
2022/11/15 00:48:14;;;;;;;13.63;7.35;;;;;;;7.21;96.36;100246.78;4995451;28;20041;-77
2022/11/15 00:51:48;;;;;;;10.25;6.45;;;;;;;7.18;96.36;100250.38;4995410;28;20041;-77
2022/11/15 00:55:48;;;;;;;6.95;5.38;;;;;;;7.22;96.62;100243.28;4995467;28;20061;-77
2022/11/15 00:59:17;;;;;;;11.50;6.20;;;;;;;7.16;96.89;100244.38;5015009;28;20057;-77
2022/11/15 01:02:44;;;;;;;12.85;7.30;;;;;;;7.06;97.27;100237.88;5015092;28;20053;-77
2022/11/15 01:06:16;;;;;;;9.38;6.75;;;;;;;7.03;97.28;100243.22;5014771;28;20173;-77
2022/11/15 01:09:45;;;;;;;30.02;19.52;;;;;;;7.22;96.48;100249.31;5014564;28;20052;-77
2022/11/15 01:13:08;;;;;;;37.35;25.65;;;;;;;7.02;98.03;100245.88;5014122;28;20076;-78
2022/11/15 01:21:16;;;;;;;;;;;;;;;7.23;97.63;100237.16;5015042;28;20037;-77
2022/11/15 01:24:38;;;;;;;19.30;11.98;;;;;;;7.23;97.72;100235.41;5014105;28;19932;-77
2022/11/15 01:28:00;;;;;;;18.15;11.60;;;;;;;7.23;97.65;100227.59;5014389;28;20040;-77
2022/11/15 01:31:22;;;;;;;11.38;8.18;;;;;;;7.21;98.21;100226.84;5014370;28;20247;-77
2022/11/15 01:34:44;;;;;;;12.93;6.85;;;;;;;7.29;97.85;100223.91;5014460;28;20164;-77
2022/11/15 01:38:05;;;;;;;12.93;7.50;;;;;;;7.33;97.37;100222.00;5014235;28;20508;-77
2022/11/15 01:41:32;;;;;;;11.52;7.78;;;;;;;7.39;97.45;100217.38;5014159;28;20048;-77
2022/11/15 01:44:54;;;;;;;12.38;8.25;;;;;;;7.44;97.11;100217.19;5014163;28;20520;-77
2022/11/15 01:48:16;;;;;;;9.20;7.53;;;;;;;7.31;97.48;100216.88;5014234;28;20049;-77
2022/11/15 01:51:39;;;;;;;11.00;7.85;;;;;;;7.25;98.25;100205.91;5013019;28;20439;-77
2022/11/15 01:55:22;;;;;;;15.30;9.13;;;;;;;7.22;98.66;100207.72;5013112;28;20121;-76
2022/11/15 01:58:46;;;;;;;12.38;7.22;;;;;;;7.21;98.71;100202.56;5014239;28;20524;-76
2022/11/15 02:02:08;;;;;;;10.52;8.07;;;;;;;7.26;98.12;100192.81;5013808;28;20535;-76
2022/11/15 02:05:32;;;;;;;7.53;6.25;;;;;;;7.21;98.78;100199.97;5013701;28;20504;-78
2022/11/15 02:08:56;;;;;;;;;;;;;;;7.25;98.23;100190.31;5013940;28;20104;-78
2022/11/15 02:12:21;;;;;;;14.40;7.68;;;;;;;7.16;98.89;100194.97;5013733;28;19971;-77
2022/11/15 02:16:15;;;;;;;10.48;7.50;;;;;;;7.18;99.16;100193.16;5013496;28;20048;-77
2022/11/15 02:20:22;;;;;;;10.90;8.38;;;;;;;7.22;99.07;100191.28;5013269;28;20164;-77
2022/11/15 02:28:58;;;;;;;11.77;8.23;;;;;;;7.39;97.95;100187.91;5013347;28;20099;-77
2022/11/15 02:37:04;;;;;;;9.43;6.57;;;;;;;7.53;97.87;100169.94;5012592;28;20551;-77
2022/11/15 02:41:19;;;;;;;9.32;7.85;;;;;;;7.36;99.13;100162.03;5012519;28;20064;-77
2022/11/15 02:45:05;;;;;;;10.95;7.57;;;;;;;7.35;99.23;100150.81;5012913;28;20437;-77
2022/11/15 02:48:41;;;;;;;11.25;7.18;;;;;;;7.44;99.11;100150.41;5011904;28;20040;-78
2022/11/15 02:52:46;;;;;;;11.30;7.03;;;;;;;7.55;98.70;100151.66;5013222;28;20168;-78
2022/11/15 02:56:27;;;;;;;11.23;6.97;;;;;;;7.47;99.00;100144.22;5012842;28;20060;-78
2022/11/15 03:00:04;;;;;;;12.75;7.90;;;;;;;7.55;98.48;100136.88;5013094;28;20519;-77
2022/11/15 03:04:06;;;;;;;11.32;7.85;;;;;;;7.50;98.75;100141.47;5012882;28;20088;-78
2022/11/15 03:08:05;;;;;;;10.55;7.22;;;;;;;7.42;99.52;100140.97;5013046;28;20169;-78
2022/11/15 03:11:44;;;;;;;8.57;6.60;;;;;;;7.43;99.57;100134.84;5012871;28;20056;-78
2022/11/15 03:15:33;;;;;;;13.60;8.48;;;;;;;7.43;99.69;100133.09;5012844;28;20060;-78
2022/11/15 03:19:42;;;;;;;13.23;8.20;;;;;;;7.48;99.71;100130.28;5012693;28;20455;-78
2022/11/15 03:23:24;;;;;;;11.18;8.00;;;;;;;7.50;100.00;100132.78;5012706;28;20121;-78
2022/11/15 03:27:02;;;;;;;15.48;8.02;;;;;;;7.48;100.00;100140.69;5012563;28;20092;-78
2022/11/15 03:30:50;;;;;;;;;;;;;;;;;;;;;
2022/11/15 03:40:29;;;;;;;;;;;;;;;;;;;;;
2022/11/15 03:44:37;;;;;;;8.88;7.68;;;;;;;7.33;100.00;100121.41;5010825;28;20077;-77
2022/11/15 03:48:41;;;;;;;13.48;8.82;;;;;;;7.29;100.00;100121.63;5012949;28;20045;-77
2022/11/15 03:52:10;;;;;;;9.63;7.47;;;;;;;7.33;100.00;100116.22;4983420;28;20053;-77
2022/11/15 03:55:44;;;;;;;10.05;6.88;;;;;;;7.28;100.00;100125.16;5016389;28;20048;-77
2022/11/15 03:59:44;;;;;;;10.10;7.18;;;;;;;7.32;100.00;100134.50;5015966;28;20181;-77
2022/11/15 04:03:52;;;;;;;11.75;8.00;;;;;;;7.30;100.00;100131.94;5016232;28;20053;-77
2022/11/15 04:07:54;;;;;;;13.77;6.88;;;;;;;7.26;100.00;100129.56;5008835;28;20049;-77
2022/11/15 04:16:25;;;;;;;;;;;;;;;7.19;100.00;100136.81;5001856;28;20057;-78
2022/11/15 04:24:19;;;;;;;10.40;6.73;;;;;;;7.18;100.00;100128.16;4996227;28;20053;-78
2022/11/15 04:32:44;;;;;;;10.70;8.20;;;;;;;7.27;100.00;100131.25;4995575;28;20462;-77
2022/11/15 04:39:50;;;;;;;12.18;7.07;;;;;;;7.12;99.64;100117.19;4995551;28;20049;-77
2022/11/15 04:43:12;;;;;;;12.52;7.85;;;;;;;7.19;99.40;100118.59;4995422;28;20080;-78
2022/11/15 04:46:35;;;;;;;10.20;6.00;;;;;;;7.09;98.99;100120.78;4995866;28;20057;-78
2022/11/15 04:49:57;;;;;;;14.68;13.00;;;;;;;7.00;99.66;100126.38;4995386;28;20060;-77
2022/11/15 04:53:20;;;;;;;14.75;11.43;;;;;;;7.01;99.36;100109.84;4995685;28;20053;-77
2022/11/15 04:56:42;;;;;;;14.00;9.90;;;;;;;7.01;98.58;100111.63;5004668;28;20083;-76
2022/11/15 05:00:07;;;;;;;15.88;10.23;;;;;;;7.01;98.55;100120.25;5009113;28;20037;-76
2022/11/15 05:07:09;;;;;;;11.52;7.35;;;;;;;6.94;98.52;100114.47;4994549;28;20124;-77
2022/11/15 05:10:31;;;;;;;9.05;7.45;;;;;;;6.80;98.09;100106.44;4994107;28;20116;-77
2022/11/15 05:13:54;;;;;;;10.27;7.32;;;;;;;6.83;98.11;100116.72;4994935;28;20066;-77
2022/11/15 05:17:16;;;;;;;5.88;4.80;;;;;;;6.68;97.39;100110.41;4994686;28;20093;-77
2022/11/15 05:20:43;;;;;;;9.93;5.55;;;;;;;6.68;97.23;100113.00;5009096;28;20564;-77
2022/11/15 05:24:05;;;;;;;6.68;5.03;;;;;;;6.75;96.56;100121.38;5012181;28;20053;-78
2022/11/15 05:27:27;;;;;;;7.03;5.45;;;;;;;6.78;96.53;100128.22;5012507;28;20100;-76
2022/11/15 05:30:49;;;;;;;18.65;14.13;;;;;;;6.79;97.16;100129.88;5012323;28;20041;-77
2022/11/15 05:34:11;;;;;;;12.13;8.40;;;;;;;6.70;97.59;100128.53;5014417;28;20628;-77
2022/11/15 05:37:33;;;;;;;9.15;7.68;;;;;;;6.63;97.79;100124.50;5009947;28;20053;-77
2022/11/15 05:40:56;;;;;;;8.52;7.63;;;;;;;6.75;97.65;100127.41;5008416;28;20112;-77
2022/11/15 05:44:21;;;;;;;10.98;7.15;;;;;;;6.71;96.57;100125.88;5009496;28;20060;-76
2022/11/15 05:47:47;;;;;;;7.85;6.85;;;;;;;6.64;96.35;100129.66;5007577;28;20083;-76
2022/11/15 05:51:10;;;;;;;8.45;7.63;;;;;;;6.71;96.20;100130.22;5011256;28;20045;-76
2022/11/15 05:54:33;;;;;;;11.23;7.28;;;;;;;6.69;96.08;100124.25;5010312;28;20072;-76
2022/11/15 05:57:55;;;;;;;9.93;7.25;;;;;;;6.65;95.73;100128.72;5003296;28;20111;-76
2022/11/15 06:01:17;;;;;;;7.32;5.60;;;;;;;6.60;96.19;100127.22;4990723;28;20093;-76
2022/11/15 06:04:39;;;;;;;8.73;7.20;;;;;;;6.68;95.33;100131.19;5006609;28;20134;-76
2022/11/15 06:08:01;;;;;;;9.38;7.40;;;;;;;6.80;95.72;100136.78;5009870;28;20500;-76
2022/11/15 06:11:23;;;;;;;8.13;7.32;;;;;;;6.73;96.17;100131.84;5009735;28;20112;-76
2022/11/15 06:14:45;;;;;;;11.90;7.57;;;;;;;6.66;96.21;100124.38;5009971;28;20049;-76
2022/11/15 06:18:07;;;;;;;9.38;6.95;;;;;;;6.64;95.85;100127.06;4996045;28;20045;-77
2022/11/15 06:21:29;;;;;;;8.20;6.30;;;;;;;6.66;96.11;100130.41;4993349;28;20076;-76
2022/11/15 06:24:51;;;;;;;10.23;6.47;;;;;;;6.54;96.74;100141.34;5006992;28;20111;-76
2022/11/15 06:28:13;;;;;;;8.95;6.25;;;;;;;6.50;96.83;100145.78;5010532;28;20507;-76
2022/11/15 06:31:35;;;;;;;8.20;5.68;;;;;;;6.68;95.76;100138.16;5009882;28;20048;-76
2022/11/15 06:34:56;;;;;;;8.32;6.95;;;;;;;6.72;95.72;100155.28;5008455;28;20052;-76
2022/11/15 06:38:18;;;;;;;10.38;6.38;;;;;;;6.81;95.39;100162.69;5010331;28;20100;-75
2022/11/15 06:41:40;;;;;;;9.65;5.50;;;;;;;6.75;95.40;100152.56;5009398;28;20045;-76
2022/11/15 06:45:02;;;;;;;7.95;6.35;;;;;;;6.82;95.47;100150.56;4998105;28;20104;-76
2022/11/15 06:48:41;;;;;;;7.97;6.38;;;;;;;6.79;95.66;100155.88;5002968;28;20119;-75
2022/11/15 06:52:03;;;;;;;12.75;8.10;;;;;;;6.74;97.01;100167.31;4998910;28;20141;-75
2022/11/15 06:55:36;;;;;;;8.40;7.18;;;;;;;6.70;98.26;100162.28;5010113;28;20095;-75
2022/11/15 06:58:58;;;;;;;9.10;7.60;;;;;;;6.93;97.79;100163.94;5010384;28;20064;-76
2022/11/15 07:02:32;;;;;;;9.98;8.23;;;;;;;7.02;97.12;100163.56;5011446;28;20041;-75
2022/11/15 07:06:20;;;;;;;10.00;7.18;;;;;;;7.01;97.61;100151.44;5013390;28;20068;-75
2022/11/15 07:09:41;;;;;;;10.60;6.05;;;;;;;7.09;97.34;100151.97;5012482;28;20088;-75
2022/11/15 07:13:03;;;;;;;6.90;5.40;;;;;;;7.04;97.24;100156.50;5008703;28;20458;-75
2022/11/15 07:16:25;;;;;;;8.05;5.93;;;;;;;7.14;97.70;100156.94;5000491;28;20045;-75
2022/11/15 07:19:47;;;;;;;9.15;5.78;;;;;;;7.12;97.94;100157.03;4989192;28;20079;-75
2022/11/15 07:23:09;;;;;;;8.48;5.95;;;;;;;7.10;97.66;100155.41;5002162;28;20076;-75
2022/11/15 07:26:32;;;;;;;8.60;4.78;;;;;;;7.08;98.19;100152.84;5008888;28;20127;-75
2022/11/15 07:29:54;;;;;;;6.25;4.05;;;;;;;7.18;97.42;100154.16;5007849;28;20312;-75
2022/11/15 07:33:19;;;;;;;7.20;4.57;;;;;;;7.28;97.54;100153.75;5011984;28;20118;-75
2022/11/15 07:36:43;;;;;;;14.98;11.98;;;;;;;7.10;98.50;100151.03;5011117;28;20502;-75
2022/11/15 07:40:05;;;;;;;9.18;7.35;;;;;;;7.15;98.73;100154.31;5010641;28;20103;-75
2022/11/15 07:43:29;;;;;;;7.32;6.57;;;;;;;7.26;99.08;100151.22;5011118;28;20053;-75
2022/11/15 07:46:51;;;;;;;13.07;7.47;;;;;;;7.25;98.87;100159.94;5010877;28;20056;-76
2022/11/15 07:50:13;;;;;;;13.35;10.57;;;;;;;7.31;99.37;100154.47;5010780;28;20044;-77
2022/11/15 07:53:35;;;;;;;13.77;9.02;;;;;;;7.42;98.47;100162.63;5010574;28;20080;-77
2022/11/15 07:56:56;;;;;;;8.80;6.43;;;;;;;7.55;97.49;100151.66;5011208;28;20053;-77
2022/11/15 08:00:19;;;;;;;8.20;4.40;;;;;;;7.59;98.41;100164.44;5011957;28;20092;-81
2022/11/15 08:03:41;;;;;;;6.00;4.05;;;;;;;7.52;98.84;100157.84;5012229;28;20052;-76
2022/11/15 08:07:32;;;;;;;8.88;6.28;;;;;;;7.37;99.70;100164.59;5011998;28;20123;-76
2022/11/15 08:10:54;;;;;;;8.05;6.75;;;;;;;7.33;100.00;100151.78;5012231;28;20577;-74
2022/11/15 08:15:03;;;;;;;8.95;6.18;;;;;;;7.76;100.00;100147.22;5012348;28;20052;-74
2022/11/15 08:18:24;;;;;;;6.68;5.65;;;;;;;7.82;99.28;100139.97;5011645;28;20091;-74
2022/11/15 08:21:46;;;;;;;8.60;4.88;;;;;;;7.80;99.53;100141.81;5012188;28;20050;-75
2022/11/15 08:25:08;;;;;;;8.30;5.50;;;;;;;7.91;98.66;100131.75;5012532;28;20128;-75
2022/11/15 08:28:31;;;;;;;5.25;3.97;;;;;;;8.04;99.03;100139.81;5012272;28;20057;-74
2022/11/15 08:31:55;;;;;;;7.78;4.03;;;;;;;8.08;99.10;100136.13;5012262;28;20516;-74
2022/11/15 08:35:19;;;;;;;5.32;4.35;;;;;;;8.14;99.27;100125.44;5013269;28;20068;-74
2022/11/15 08:38:42;;;;;;;7.13;4.10;;;;;;;8.15;98.74;100131.47;5014857;28;20104;-74
2022/11/15 08:42:04;;;;;;;7.13;4.90;;;;;;;8.16;99.93;100133.97;4997872;28;20101;-75
2022/11/15 08:45:26;;;;;;;5.78;3.95;;;;;;;8.12;100.00;100124.66;5010867;28;20057;-75
2022/11/15 08:48:48;;;;;;;6.85;3.72;;;;;;;8.14;100.00;100125.44;5013003;28;20048;-75
2022/11/15 08:52:10;;;;;;;7.38;3.75;;;;;;;8.25;100.00;100116.25;5007052;28;20064;-75
2022/11/15 08:55:31;;;;;;;6.95;3.90;;;;;;;8.21;100.00;100117.31;5012504;28;20440;-75
2022/11/15 08:58:53;;;;;;;7.80;4.07;;;;;;;8.27;100.00;100122.22;5010109;28;20567;-75
2022/11/15 09:02:16;;;;;;;4.88;3.15;;;;;;;8.30;100.00;100122.06;4992708;28;20042;-75
2022/11/15 09:05:38;;;;;;;4.97;3.40;;;;;;;8.34;100.00;100116.63;5007921;28;20084;-75
2022/11/15 09:09:01;;;;;;;5.78;3.40;;;;;;;8.52;100.00;100117.50;5012466;28;20571;-75
2022/11/15 09:12:24;;;;;;;4.87;3.50;;;;;;;8.52;100.00;100114.03;5012666;28;20125;-75
2022/11/15 09:15:46;;;;;;;6.47;4.20;;;;;;;8.42;100.00;100115.44;5012850;28;20045;-75
2022/11/15 09:19:08;;;;;;;13.10;4.78;;;;;;;8.52;100.00;100108.81;5013654;28;20462;-75
2022/11/15 09:22:29;;;;;;;5.38;4.10;;;;;;;8.64;100.00;100107.38;5002133;28;20050;-75
2022/11/15 09:26:03;;;;;;;6.45;4.30;;;;;;;8.67;100.00;100112.44;5003942;28;20061;-75
2022/11/15 09:29:28;;;;;;;5.60;3.03;;;;;;;8.81;100.00;100102.16;5011675;28;20096;-75
2022/11/15 09:32:49;;;;;;;6.28;3.55;;;;;;;8.87;100.00;100095.75;5011052;28;20076;-75
2022/11/15 09:36:11;;;;;;;7.25;3.47;;;;;;;8.98;100.00;100107.31;5011948;28;20096;-75
2022/11/15 09:39:36;;;;;;;5.78;2.92;;;;;;;9.04;100.00;100107.00;5011595;28;20049;-75
2022/11/15 09:43:02;;;;;;;5.13;3.38;;;;;;;9.02;100.00;100097.56;5010385;28;20045;-75
2022/11/15 09:46:56;;;;;;;5.25;3.40;;;;;;;9.06;100.00;100094.75;5007778;28;20056;-75
2022/11/15 09:50:36;;;;;;;8.15;4.28;;;;;;;8.96;100.00;100098.72;5008968;28;20049;-74
2022/11/15 09:53:51;;;;;;;9.70;8.52;;;;;;;9.09;100.00;100098.94;5010674;28;20056;-75
2022/11/15 09:57:16;;;;;;;18.25;15.60;;;;;;;9.13;100.00;100103.06;5004658;28;20052;-75
2022/11/15 10:00:35;;;;;;;11.73;8.52;;;;;;;9.34;100.00;100093.25;5010906;28;20136;-75
2022/11/15 10:03:41;;;;;;;12.50;7.82;;;;;;;9.42;100.00;100085.03;5009822;28;20114;-75
2022/11/15 10:06:54;;;;;;;9.60;7.43;;;;;;;9.39;100.00;100080.81;5001287;28;20092;-74
2022/11/15 10:10:13;;;;;;;14.52;11.88;;;;;;;9.36;100.00;100074.91;5001702;28;20052;-75
2022/11/15 10:13:22;;;;;;;9.75;6.78;;;;;;;9.47;100.00;100081.22;5010208;28;20061;-75
2022/11/15 10:17:03;;;;;;;6.28;4.65;;;;;;;9.42;100.00;100077.19;5010410;28;20044;-75
2022/11/15 10:20:12;;;;;;;4.85;3.35;;;;;;;9.54;100.00;100069.53;5010514;28;20076;-76
2022/11/15 10:23:22;;;;;;;5.45;3.17;;;;;;;9.65;100.00;100060.25;5010106;28;20725;-75
2022/11/15 10:26:26;;;;;;;4.75;3.97;;;;;;;9.68;100.00;100060.09;5002590;28;20057;-76
2022/11/15 10:29:30;;;;;;;5.40;4.70;;;;;;;9.85;100.00;100052.13;5012934;28;20099;-75
2022/11/15 10:32:36;;;;;;;7.10;3.90;;;;;;;9.90;100.00;100044.88;4992807;28;20481;-75
2022/11/15 10:35:39;;;;;;;6.10;3.83;;;;;;;9.84;100.00;100045.22;4990320;28;20628;-76
2022/11/15 10:38:49;;;;;;;;;;;;;;;9.86;100.00;100027.72;5007989;28;20053;-76
2022/11/15 10:41:57;;;;;;;5.40;3.47;;;;;;;9.93;100.00;100026.44;5010945;28;20008;-74
2022/11/15 10:45:01;;;;;;;5.05;3.70;;;;;;;9.99;100.00;100010.41;5009951;28;20139;-76
2022/11/15 10:48:13;;;;;;;4.85;3.10;;;;;;;10.11;100.00;100000.16;5010131;28;20496;-76
2022/11/15 10:51:28;;;;;;;4.57;2.92;;;;;;;10.00;100.00;99996.41;4993098;28;20405;-75
2022/11/15 10:54:49;;;;;;;4.43;2.85;;;;;;;10.13;100.00;99995.69;5001684;28;20041;-76
2022/11/15 10:58:31;;;;;;;7.78;3.42;;;;;;;10.30;100.00;99990.34;5010029;28;20092;-74
2022/11/15 11:01:46;;;;;;;9.70;5.00;;;;;;;10.58;100.00;99984.28;5004522;28;20084;-75
2022/11/15 11:04:51;;;;;;;7.47;4.25;;;;;;;10.57;100.00;99971.31;5009851;28;20073;-75
2022/11/15 11:08:21;;;;;;;6.70;4.95;;;;;;;10.68;100.00;99968.88;5009501;28;20095;-75
2022/11/15 11:11:45;;;;;;;6.80;3.88;;;;;;;10.71;100.00;99963.47;5010363;28;20060;-77
2022/11/15 11:14:48;;;;;;;6.30;2.97;;;;;;;10.70;100.00;99952.16;4991452;28;20057;-76
2022/11/15 11:17:51;;;;;;;6.60;3.65;;;;;;;10.82;100.00;99955.81;4993126;28;20052;-76
2022/11/15 11:20:58;;;;;;;;;;;;;;;10.80;100.00;99952.44;4994157;28;20046;-76
2022/11/15 11:24:13;;;;;;;9.68;5.60;;;;;;;10.92;100.00;99951.66;4993803;28;19929;-76
2022/11/15 11:27:38;;;;;;;6.68;3.55;;;;;;;11.07;98.92;99938.53;4993733;28;20049;-75
2022/11/15 11:31:15;;;;;;;8.45;4.85;;;;;;;11.10;98.41;99930.50;4993874;28;20045;-75
2022/11/15 11:34:38;;;;;;;6.32;3.53;;;;;;;11.25;98.18;99932.16;4993639;28;20046;-75
2022/11/15 11:37:53;;;;;;;8.30;3.67;;;;;;;11.45;99.22;99932.63;5003009;28;20045;-75
2022/11/15 11:41:18;;;;;;;7.28;2.95;;;;;;;11.52;98.54;99932.16;4992154;28;20050;-75
2022/11/15 11:45:15;;;;;;;8.00;2.80;;;;;;;11.50;95.68;99920.91;4993004;28;20060;-75
2022/11/15 11:48:53;;;;;;;3.80;1.70;;;;;;;11.69;88.05;99911.84;4989772;28;20053;-75
2022/11/15 11:52:08;;;;;;;3.70;1.63;;;;;;;11.87;87.94;99910.66;4993123;28;20089;-75
2022/11/15 11:55:16;;;;;;;3.22;1.52;;;;;;;11.97;87.14;99898.63;4992988;28;20053;-75
2022/11/15 11:58:25;;;;;;;5.25;1.90;;;;;;;12.14;85.64;99894.81;4992988;28;20081;-75
2022/11/15 12:01:35;;;;;;;4.05;1.42;;;;;;;12.01;85.93;99905.31;4992594;28;20116;-75
2022/11/15 12:04:43;;;;;;;3.45;1.70;;;;;;;12.02;85.25;99903.53;4993013;28;20050;-75
2022/11/15 12:07:49;;;;;;;2.90;1.65;;;;;;;12.04;84.60;99899.88;4993330;28;20127;-75
2022/11/15 12:11:01;;;;;;;5.32;1.90;;;;;;;12.11;84.34;99900.28;4996111;28;20117;-76
2022/11/15 12:14:30;;;;;;;5.50;1.70;;;;;;;12.11;84.53;99900.28;4997291;28;20139;-76
2022/11/15 12:17:38;;;;;;;3.88;1.40;;;;;;;12.06;83.99;99895.38;4996807;28;20581;-75
2022/11/15 12:21:29;;;;;;;4.25;1.38;;;;;;;12.08;84.02;99884.75;4996992;28;20069;-76
2022/11/15 12:24:46;;;;;;;6.20;2.03;;;;;;;12.16;84.14;99881.63;4996634;28;20065;-76
2022/11/15 12:27:52;;;;;;;3.17;1.50;;;;;;;12.05;84.60;99879.72;4996740;28;20531;-76
2022/11/15 12:31:04;;;;;;;5.22;1.20;;;;;;;11.97;83.83;99874.19;4996733;28;20041;-76
2022/11/15 12:34:20;;;;;;;2.05;1.00;;;;;;;12.04;82.76;99872.81;4996461;28;20100;-76
2022/11/15 12:37:34;;;;;;;3.95;1.10;;;;;;;12.01;83.95;99867.78;4996418;28;20073;-75
2022/11/15 12:44:38;;;;;;;2.90;1.10;;;;;;;11.92;83.91;99855.31;4996442;28;20104;-75
2022/11/15 12:47:42;;;;;;;3.42;1.17;;;;;;;11.89;83.21;99842.44;4996610;28;20089;-76
2022/11/15 12:51:04;;;;;;;2.65;1.08;;;;;;;11.79;83.65;99856.13;4996344;28;20049;-75
2022/11/15 12:54:22;;;;;;;3.55;1.20;;;;;;;11.79;82.59;99845.66;4996622;28;20138;-76
2022/11/15 12:57:34;;;;;;;4.72;1.35;;;;;;;11.80;82.88;99838.63;4996421;28;20107;-76
2022/11/15 13:00:38;;;;;;;4.28;1.20;;;;;;;11.85;83.13;99841.81;4996310;28;20113;-76
2022/11/15 13:04:09;;;;;;;5.05;1.42;;;;;;;11.85;82.42;99836.56;4996363;28;20050;-76
2022/11/15 13:07:38;;;;;;;3.05;1.73;;;;;;;11.82;83.42;99828.88;4996126;28;20053;-76
2022/11/15 13:10:42;;;;;;;4.28;1.30;;;;;;;11.79;83.69;99827.31;4993094;28;20046;-77
2022/11/15 13:13:46;;;;;;;4.30;2.00;;;;;;;11.85;84.41;99826.09;4996008;28;20096;-77
2022/11/15 13:16:58;;;;;;;7.63;3.20;;;;;;;11.95;83.20;99816.66;4996319;28;20053;-75
2022/11/15 13:20:14;;;;;;;3.40;2.00;;;;;;;12.03;82.27;99814.34;4995925;28;20091;-76
2022/11/15 13:23:18;;;;;;;6.03;2.20;;;;;;;12.13;80.34;99801.44;4995894;28;20461;-75
2022/11/15 13:26:22;;;;;;;9.05;2.03;;;;;;;12.10;79.75;99799.88;4995798;28;20045;-75
2022/11/15 13:29:25;;;;;;;3.63;1.42;;;;;;;12.22;79.08;99790.31;4995840;28;20068;-77
2022/11/15 13:32:31;;;;;;;4.25;1.40;;;;;;;12.19;78.36;99787.91;5006615;28;20049;-76
2022/11/15 13:35:50;;;;;;;3.13;1.10;;;;;;;12.13;79.84;99779.66;4995617;28;20378;-76
2022/11/15 13:39:00;;;;;;;4.95;2.38;;;;;;;12.02;80.39;99783.00;4995470;28;20081;-76
2022/11/15 13:42:03;;;;;;;5.30;1.45;;;;;;;12.00;81.67;99782.28;4995403;28;20053;-76
2022/11/15 13:45:14;;;;;;;4.47;1.58;;;;;;;11.92;82.81;99779.34;4995539;28;20050;-76
2022/11/15 13:48:18;;;;;;;3.95;1.70;;;;;;;11.83;81.65;99771.13;4995437;28;20116;-76
2022/11/15 13:51:47;;;;;;;4.05;1.80;;;;;;;11.79;82.40;99761.84;4995261;28;20041;-76
2022/11/15 13:54:59;;;;;;;4.05;1.95;;;;;;;11.79;82.83;99753.97;4995312;28;20056;-76
2022/11/15 13:58:05;;;;;;;4.13;2.22;;;;;;;11.76;83.62;99767.28;4995226;28;20054;-76
2022/11/15 14:01:17;;;;;;;3.78;1.98;;;;;;;11.80;84.41;99754.81;4995087;28;20082;-76
2022/11/15 14:04:24;;;;;;;5.63;2.75;;;;;;;11.81;85.13;99754.72;4995075;28;20124;-76
2022/11/15 14:07:29;;;;;;;4.10;2.40;;;;;;;11.82;84.88;99748.53;4994961;28;20141;-76
2022/11/15 14:10:37;;;;;;;4.82;2.45;;;;;;;11.77;85.21;99748.03;5005196;28;20045;-76
2022/11/15 14:13:41;;;;;;;6.28;2.78;;;;;;;11.69;84.61;99742.47;4994980;28;20137;-76
2022/11/15 14:16:47;;;;;;;7.90;2.85;;;;;;;11.72;84.72;99730.94;4994939;28;20452;-76
2022/11/15 14:19:57;;;;;;;4.95;3.17;;;;;;;11.71;85.77;99726.63;4994159;28;20117;-76
2022/11/15 14:23:04;;;;;;;5.85;3.15;;;;;;;11.62;85.39;99720.28;4994807;28;20104;-76
2022/11/15 14:26:30;;;;;;;4.93;3.15;;;;;;;11.63;85.85;99716.69;4994529;28;20049;-76
2022/11/15 14:29:34;;;;;;;4.35;2.63;;;;;;;11.62;85.99;99712.41;4994599;28;20049;-75
2022/11/15 14:32:45;;;;;;;6.70;3.25;;;;;;;11.62;86.40;99709.81;4993810;28;20100;-76
2022/11/15 14:35:49;;;;;;;5.90;2.33;;;;;;;11.65;87.01;99699.13;4994451;28;20100;-75
2022/11/15 14:38:54;;;;;;;3.65;2.28;;;;;;;11.69;87.70;99697.94;4994363;28;20600;-76
2022/11/15 14:41:57;;;;;;;4.15;2.33;;;;;;;11.64;87.51;99694.81;4993268;28;20040;-76
2022/11/15 14:45:01;;;;;;;;;;;;;;;11.59;87.54;99683.84;4994530;28;20053;-76
2022/11/15 14:48:04;;;;;;;4.45;2.85;;;;;;;11.53;87.35;99679.03;4993994;28;19967;-75
2022/11/15 14:51:13;;;;;;;4.93;3.58;;;;;;;11.58;87.48;99672.53;4994170;28;20137;-75
2022/11/15 14:54:17;;;;;;;6.50;2.53;;;;;;;11.64;88.24;99676.47;4994122;28;20544;-76
2022/11/15 14:57:20;;;;;;;6.13;2.50;;;;;;;11.65;88.92;99675.53;4994130;28;20046;-76
2022/11/15 15:00:25;;;;;;;4.45;2.10;;;;;;;11.66;89.56;99671.97;4994034;28;20076;-76
2022/11/15 15:03:28;;;;;;;5.28;1.83;;;;;;;11.69;89.90;99670.94;4994216;28;20069;-76
2022/11/15 15:06:32;;;;;;;5.00;2.15;;;;;;;11.67;89.69;99655.31;4994169;28;20404;-76
2022/11/15 15:09:35;;;;;;;5.90;2.25;;;;;;;11.57;89.92;99654.28;4993812;28;20112;-75
2022/11/15 15:12:40;;;;;;;3.92;2.00;;;;;;;11.55;90.60;99653.53;4993834;28;20550;-76
2022/11/15 15:15:44;;;;;;;4.45;2.17;;;;;;;11.54;90.57;99649.25;4993959;28;20049;-76
2022/11/15 15:18:53;;;;;;;5.43;2.90;;;;;;;11.43;91.45;99647.41;4993559;28;20537;-76
2022/11/15 15:21:56;;;;;;;4.15;2.38;;;;;;;11.40;92.52;99643.22;4993399;28;20129;-76
2022/11/15 15:25:02;;;;;;;3.47;2.10;;;;;;;11.42;92.41;99640.47;4993861;28;20076;-76
2022/11/15 15:28:06;;;;;;;5.05;3.47;;;;;;;11.31;92.76;99638.63;4993525;28;20073;-76
2022/11/15 15:31:11;;;;;;;7.18;4.70;;;;;;;11.22;93.58;99630.56;4992773;28;20149;-76
2022/11/15 15:34:17;;;;;;;14.27;4.47;;;;;;;11.13;93.87;99625.03;4993092;28;20045;-76
2022/11/15 15:37:23;;;;;;;;;;;;;;;11.18;94.14;99624.72;4994124;28;20041;-77
2022/11/15 15:40:29;;;;;;;8.60;4.13;;;;;;;11.15;93.93;99624.94;4993571;28;20001;-76
2022/11/15 15:43:32;;;;;;;4.88;3.25;;;;;;;11.14;94.87;99631.13;4646668;28;10000430;-77
2022/11/15 15:46:36;;;;;;;7.53;3.55;;;;;;;11.08;94.82;99636.75;4651965;28;10001498;-76
2022/11/15 15:49:40;;;;;;;7.53;3.38;;;;;;;11.06;95.24;99629.00;4996651;28;20073;-76
2022/11/15 15:52:44;;;;;;;7.63;2.90;;;;;;;11.07;95.57;99635.06;4997493;28;20046;-76
2022/11/15 15:55:47;;;;;;;6.88;3.38;;;;;;;11.11;94.53;99631.31;4996414;28;20045;-76
2022/11/15 15:58:52;;;;;;;9.13;5.78;;;;;;;11.10;95.01;99630.50;4996718;28;20561;-74
2022/11/15 16:01:56;;;;;;;6.85;4.50;;;;;;;11.01;94.77;99625.03;4996239;28;20410;-74
2022/11/15 16:04:59;;;;;;;9.98;4.50;;;;;;;10.99;95.82;99627.75;4996266;28;20049;-75
2022/11/15 16:08:04;;;;;;;8.68;5.25;;;;;;;10.97;95.77;99615.72;4996467;28;20053;-75
2022/11/15 16:11:09;;;;;;;9.48;6.00;;;;;;;10.86;95.78;99619.06;4996639;28;20049;-74
2022/11/15 16:14:13;;;;;;;10.43;4.82;;;;;;;10.80;96.99;99616.88;4996812;28;20421;-75
2022/11/15 16:17:21;;;;;;;9.15;4.70;;;;;;;10.74;97.06;99612.06;4996449;28;20037;-74
2022/11/15 16:20:44;;;;;;;14.93;9.52;;;;;;;10.72;97.02;99609.56;4996198;28;20049;-76
2022/11/15 16:23:47;;;;;;;37.60;31.73;;;;;;;10.81;97.10;99603.69;4995045;28;20524;-77
2022/11/15 16:26:52;;;;;;;34.33;28.05;;;;;;;10.78;96.65;99598.66;4996524;28;20053;-75
2022/11/15 16:29:55;;;;;;;21.30;17.58;;;;;;;10.77;97.12;99597.00;4996842;28;20500;-75
2022/11/15 16:33:01;;;;;;;21.02;15.27;;;;;;;10.83;96.46;99588.72;4997910;28;20044;-74
2022/11/15 16:36:19;;;;;;;18.67;14.82;;;;;;;10.71;97.06;99594.78;4996924;28;20049;-74
2022/11/15 16:39:23;;;;;;;18.10;13.30;;;;;;;10.65;97.30;99587.34;4996431;28;20044;-74
2022/11/15 16:42:26;;;;;;;;;;;;;;;10.68;97.93;99587.16;4996753;28;20385;-75
2022/11/15 16:45:30;;;;;;;21.95;9.95;;;;;;;10.77;97.24;99594.38;5004561;28;20004;-75
2022/11/15 16:48:37;;;;;;;96.18;67.55;;;;;;;10.81;97.15;99584.53;5010207;28;20037;-74
2022/11/15 16:51:43;;;;;;;34.33;26.65;;;;;;;10.74;97.03;99584.13;5010421;28;20099;-74
2022/11/15 16:54:47;;;;;;;24.33;17.90;;;;;;;10.67;97.18;99582.88;5010288;28;20049;-75
2022/11/15 16:57:51;;;;;;;22.35;13.77;;;;;;;10.44;98.80;99580.03;5011162;28;20057;-75